AirNav   Everest Fuels
 
 1255 users online  

3NC3 Tucker Field Airport
Locust, North Carolina, USA

GOING TO LOCUST?


FAA INFORMATION EFFECTIVE 21 MAY 2020

Location

FAA Identifier: 3NC3
Lat/Long: 35-14-49.0000N 080-24-27.0000W
35-14.816667N 080-24.450000W
35.2469444,-80.4075000
(estimated)
Elevation: 645 ft. / 197 m (estimated)
Variation: 06W (1990)
From city: 1 mile SE of LOCUST, NC
Time zone: UTC -4 (UTC -5 during Standard Time)
Zip code: 28097

Airport Operations

Airport use: Private use. Permission required prior to landing
Activation date: 04/1993
Control tower: no
ARTCC: ATLANTA CENTER
FSS: RALEIGH FLIGHT SERVICE STATION
Attendance: SR-SS
Segmented circle: no

Airport Communications

WX AWOS-3 at VUJ (16 nm NE): 128.175 (704-986-2097)
WX AWOS-3 at JQF (17 nm NW): 133.675 (704-785-2145)
WX ASOS at EQY (17 nm SW): 135.775 (704-283-5185)

Nearby radio navigation aids

VOR radial/distance  VOR name  Freq  Var
CLTr088/26.9CHARLOTTE VOR/DME115.0005W
CTFr353/36.4CHESTERFIELD VOR/DME108.2003W

 
NDB name  Hdg/Dist  Freq  Var  ID
STONIA091/36.926006WGHJ --. .... .---
LANCASTER042/38.540007WLKR .-.. -.- .-.

Airport Services

Runway Information

Runway 6/24

Dimensions: 1800 x 50 ft. / 549 x 15 m
500 FT SW END CLSD INDEFLY DUE TO CONST.
Surface: turf
RUNWAY 6  RUNWAY 24
Traffic pattern: leftleft

Airport Ownership and Management from official FAA records

Ownership: Privately-owned
Owner: RICHARD D. TUCKER
PO BOX 326
LOCUST, NC 28097
Phone (281) 827-2961
Manager: RICHARD D. TUCKER
14004 ELM ST
LOCUST, NC 28097
Phone 281-827-2961

Airport Operational Statistics

Aircraft based on the field: 8
Single engine airplanes: 4
Helicopters: 4
    
Aircraft operations: 12/year
100% local general aviation

Additional Remarks

FOR CD CTC CHARLOTTE APCH AT 704-359-0241.

Instrument Procedures

There are no published instrument procedures at 3NC3.

Some nearby airports with instrument procedures:

KVUJ - Stanly County Airport (16 nm NE)
KJQF - Concord-Padgett Regional Airport (17 nm NW)
KEQY - Charlotte-Monroe Executive Airport (17 nm SW)
KAFP - Anson County Airport - Jeff Cloud Field (21 nm SE)
KRUQ - Mid-Carolina Regional Airport (25 nm N)
 
Loc | Ops | Rwys | IFR | FBO | Links
Com | Nav | Svcs | Stats | Notes
Area around 3NC3 (Tucker Field Airport)
 
Road maps at: MapQuest Bing Google
 
Aerial photo
No photo
 
Sectional chart

 
Airport distance calculator
Flying to Tucker Field Airport? Find the distance to fly.

From to 3NC3

Sunrise and sunset
Times for 02-Jun-2020
 Local
(UTC-4)
 Zulu
(UTC)
Morning civil twilight05:3909:39
Sunrise06:0910:09
Sunset20:3100:31
Evening civil twilight21:0001:00

Current date and time
Zulu (UTC)  02-Jun-2020 14:01:21
Local (UTC-4)  02-Jun-2020 10:01:21
 
METAR
KVUJ 
16nm NE 
021335Z AUTO 23009KT 10SM CLR 22/16 A3025 RMK AO2 T02240162
KJQF 
17nm NW 
021350Z 25010KT 10SM CLR 23/16 A3024
KEQY 
17nm SW 
021353Z AUTO 24012KT 10SM CLR 22/15 A3023 RMK AO2 SLP239 T02220150
KAFP 
21nm SE 
021355Z AUTO 21007KT 10SM CLR 23/15 A3022 RMK AO2 T02250149
KRUQ 
25nm N 
021355Z AUTO 25011G17KT 10SM BKN120 23/15 A3020 RMK AO2 T02250152
KCLT 
27nm W 
021352Z 23007KT 10SM FEW120 SCT250 23/16 A3023 RMK AO2 SLP229 T02330156
TAF
KCLT 
27nm W 
021120Z 0212/0318 22004KT P6SM FEW180 FM021700 22009G15KT P6SM FEW050 SCT250 FM022300 22004KT P6SM FEW080 FM031500 24007KT P6SM FEW120
NOTAMs
Click for the latest NOTAMs
NOTAMs are issued by the DoD/FAA and will open in a separate window not controlled by AirNav.

 

 
 

Would you like to see your business listed on this page?

 If your business provides an interesting product or service to pilots, flight crews, aircraft, or users of the Tucker Field Airport, you should consider listing it here.  To start the listing process, click on the button below
 
Add a business
 

Other Pages about Tucker Field Airport

Update a link
 
Copyright © AirNav, LLC. All rights reserved. Privacy Policy  Contact